Bendale, South Carolina
Current Conditions -  °F | °C
As of 7:53 AM on Sunday 21 Dec 2014 (Local Time) from KCUB Reporting Station
Overcast Overcast  
Wind Chill: 44°   Ceiling: 5500
Heat Index: 44°   Visibility: 9mi
Dew Point: 37°   Wind: 0mph
Humidity: 76%   Direction: NA
Pressure: 30.28"   Gusts: NA
Location:  34.1179°N, 81.0612°W
Report Text: KCUB 211253Z AUTO 00000KT 9SM OVC055 07/03 A3028 RMK AO2 SLP252 T00670028
Loading
Personal Weather Stations






























Interactive Weather Map New forecast layout! Learn more

10-Day Weather Forecast

Advertisements
Track Severe Weather on mobile